Time;durP1;ratioP1;P1;durP2;ratioP2;P2;SDS_P1;SDS_P2;PMS_P1;PMS_P2;Temp;Humidity;BMP_temperature;BMP_pressure;BME280_temperature;BME280_humidity;BME280_pressure;Samples;Min_cycle;Max_cycle;Signal;HPM_P1;HPM_P2
2022/01/31 00:00:24;;;;;;;13.30;7.80;;;;;;;-0.35;100.00;97850.44;5026753;28;20051;-57
2022/01/31 00:03:30;;;;;;;15.23;8.20;;;;;;;-0.30;100.00;97846.94;5038140;28;20519;-59
2022/01/31 00:06:15;;;;;;;15.43;8.73;;;;;;;-0.23;100.00;97848.56;5046286;28;20531;-49
2022/01/31 00:09:00;;;;;;;14.57;8.05;;;;;;;-0.16;100.00;97846.78;5046689;28;20047;-55
2022/01/31 00:11:54;;;;;;;;;;;;;;;-0.12;100.00;97849.34;5045899;28;20047;-49
2022/01/31 00:14:44;;;;;;;16.52;7.97;;;;;;;0.00;100.00;97835.38;5033289;28;19924;-52
2022/01/31 00:17:29;;;;;;;15.13;8.50;;;;;;;-0.40;100.00;97811.41;5016293;28;20052;-49
2022/01/31 00:20:14;;;;;;;16.30;9.23;;;;;;;-0.46;100.00;97834.91;5040238;28;20692;-51
2022/01/31 00:22:58;;;;;;;;;;;;;;;-0.32;100.00;97827.84;5015751;28;20133;-53
2022/01/31 00:25:43;;;;;;;15.13;7.65;;;;;;;-0.43;100.00;97832.25;5041841;28;19924;-57
2022/01/31 00:28:28;;;;;;;;;;;;;;;-0.32;100.00;97830.44;5020606;28;20130;-50
2022/01/31 00:31:12;;;;;;;14.93;8.32;;;;;;;-0.36;100.00;97823.53;5028574;28;19927;-58
2022/01/31 00:33:57;;;;;;;16.13;9.27;;;;;;;-0.32;100.00;97827.84;5014574;28;20057;-55
2022/01/31 00:36:41;;;;;;;17.83;9.00;;;;;;;-0.22;100.00;97826.03;5028164;28;20103;-58
2022/01/31 00:39:26;;;;;;;17.23;9.00;;;;;;;-0.10;100.00;97816.38;5037575;28;20071;-50
2022/01/31 00:42:11;;;;;;;19.70;9.18;;;;;;;0.00;100.00;97824.94;5030488;28;20110;-55
2022/01/31 00:45:08;;;;;;;16.00;8.75;;;;;;;-0.15;100.00;97819.88;5044170;28;20724;-51
2022/01/31 00:48:02;;;;;;;17.05;9.63;;;;;;;-0.49;100.00;97785.47;5046780;28;20059;-48
2022/01/31 00:50:49;;;;;;;16.95;9.30;;;;;;;-0.32;100.00;97800.94;5021411;28;20060;-56
2022/01/31 00:53:34;;;;;;;14.85;8.52;;;;;;;-0.05;100.00;97826.72;5038192;28;20044;-51
2022/01/31 00:56:19;;;;;;;14.43;8.85;;;;;;;-0.24;100.00;97818.22;5035741;28;20072;-54
2022/01/31 00:59:03;;;;;;;16.45;9.40;;;;;;;-0.19;100.00;97806.00;5032746;28;20190;-56
2022/01/31 01:01:48;;;;;;;17.63;9.48;;;;;;;-0.15;100.00;97812.91;5015512;28;22025;-55
2022/01/31 01:04:33;;;;;;;15.95;9.13;;;;;;;-0.18;100.00;97812.97;5012129;28;20530;-52
2022/01/31 01:07:19;;;;;;;15.82;9.25;;;;;;;-0.18;100.00;97805.16;5027230;28;20056;-56
2022/01/31 01:10:05;;;;;;;18.00;9.00;;;;;;;-0.30;100.00;97805.28;5027440;28;20063;-56
2022/01/31 01:12:51;;;;;;;15.77;8.50;;;;;;;-0.29;100.00;97806.13;5026958;28;20508;-52
2022/01/31 01:15:36;;;;;;;16.15;8.63;;;;;;;-0.32;100.00;97811.34;5045982;28;20534;-54
2022/01/31 01:18:20;;;;;;;15.55;8.77;;;;;;;-0.45;100.00;97797.59;5040207;28;20088;-54
2022/01/31 01:21:05;;;;;;;15.48;9.75;;;;;;;-0.36;100.00;97800.09;5017690;28;20487;-56
2022/01/31 01:23:50;;;;;;;14.60;8.77;;;;;;;-0.24;100.00;97801.72;5006313;28;20118;-56
2022/01/31 01:26:35;;;;;;;16.88;9.20;;;;;;;-0.65;100.00;97796.00;5023529;28;20107;-52
2022/01/31 01:29:21;;;;;;;14.48;9.20;;;;;;;-0.63;100.00;97800.31;5042474;28;20172;-52
2022/01/31 01:32:09;;;;;;;17.88;9.82;;;;;;;-0.56;100.00;97803.75;5015165;28;20143;-55
2022/01/31 01:34:58;;;;;;;13.73;8.48;;;;;;;-0.36;100.00;97799.22;5017726;28;20083;-50
2022/01/31 01:37:44;;;;;;;16.33;8.77;;;;;;;-0.16;100.00;97799.91;5016449;28;20137;-59
2022/01/31 01:40:29;;;;;;;14.05;8.80;;;;;;;-0.16;100.00;97790.38;5046892;28;20051;-51
2022/01/31 01:43:15;;;;;;;17.58;9.40;;;;;;;-0.11;100.00;97795.53;5021821;28;20401;-50
2022/01/31 01:46:01;;;;;;;16.40;10.00;;;;;;;0.04;100.00;97809.25;4999392;28;20099;-59
2022/01/31 01:48:51;;;;;;;15.27;9.15;;;;;;;-0.06;100.00;97815.47;5016835;28;20056;-59
2022/01/31 01:51:38;;;;;;;17.17;8.70;;;;;;;0.00;100.00;97804.97;5009268;28;20067;-55
2022/01/31 01:54:26;;;;;;;18.63;9.25;;;;;;;0.11;100.00;97812.66;5020293;28;20083;-51
2022/01/31 01:57:13;;;;;;;14.15;9.27;;;;;;;0.04;100.00;97811.03;5023318;28;20056;-54
2022/01/31 01:59:59;;;;;;;17.55;9.55;;;;;;;-0.02;100.00;97811.94;5010080;28;20421;-58
2022/01/31 02:03:00;;;;;;;16.08;8.65;;;;;;;-0.08;100.00;97808.50;5018364;28;20053;-54
2022/01/31 02:05:45;;;;;;;15.50;8.77;;;;;;;-0.04;100.00;97813.69;5020979;28;20056;-50
2022/01/31 02:08:43;;;;;;;18.27;9.48;;;;;;;0.02;100.00;97807.56;5011871;28;20341;-55
2022/01/31 02:11:32;;;;;;;14.73;8.82;;;;;;;0.00;100.00;97801.50;5019558;28;20076;-57
2022/01/31 02:14:18;;;;;;;14.05;8.40;;;;;;;0.01;100.00;97785.00;5029340;28;20140;-56
2022/01/31 02:17:41;;;;;;;15.88;8.60;;;;;;;-0.01;100.00;97795.44;4983729;28;20145;-59
2022/01/31 02:20:39;;;;;;;17.60;8.93;;;;;;;0.03;100.00;97798.00;4972001;28;20123;-53
2022/01/31 02:23:27;;;;;;;16.45;8.88;;;;;;;0.04;100.00;97800.59;4970029;28;20084;-55
2022/01/31 02:26:29;;;;;;;17.42;8.73;;;;;;;0.05;100.00;97797.97;4986308;28;20113;-54
2022/01/31 02:29:22;;;;;;;17.15;9.32;;;;;;;-0.09;100.00;97807.66;4970634;28;20133;-56
2022/01/31 02:32:07;;;;;;;18.98;9.32;;;;;;;-0.12;100.00;97804.22;4952352;28;20083;-51
2022/01/31 02:34:52;;;;;;;19.83;9.60;;;;;;;-0.01;100.00;97798.03;4975879;28;20054;-56
2022/01/31 02:37:38;;;;;;;15.52;8.88;;;;;;;0.08;100.00;97782.31;4968932;28;20513;-53
2022/01/31 02:40:36;;;;;;;17.42;9.80;;;;;;;0.32;100.00;97812.44;4980940;28;20092;-57
2022/01/31 02:43:29;;;;;;;18.75;10.13;;;;;;;0.17;100.00;97809.13;4960843;28;20149;-58
2022/01/31 02:46:15;;;;;;;16.17;8.95;;;;;;;0.15;100.00;97803.94;4945248;28;20085;-57
2022/01/31 02:49:08;;;;;;;21.55;9.15;;;;;;;0.10;100.00;97808.34;5025553;28;20052;-53
2022/01/31 02:52:01;;;;;;;17.15;9.55;;;;;;;0.17;100.00;97809.13;5030170;28;20382;-55
2022/01/31 02:54:46;;;;;;;18.85;9.18;;;;;;;0.20;100.00;97793.47;5038129;28;20941;-52
2022/01/31 02:57:32;;;;;;;20.45;9.88;;;;;;;0.40;100.00;97807.13;5020681;28;20060;-59
2022/01/31 03:00:17;;;;;;;17.33;9.35;;;;;;;0.35;100.00;97811.56;5020234;28;20384;-51
2022/01/31 03:03:34;;;;;;;19.90;9.32;;;;;;;0.10;100.00;97800.53;4987311;28;20402;-54
2022/01/31 03:06:20;;;;;;;18.45;9.73;;;;;;;-0.13;100.00;97797.28;4971794;28;20057;-57
2022/01/31 03:09:05;;;;;;;;;;;;;;;0.07;100.00;97799.72;4994373;28;20057;-53
2022/01/31 03:11:57;;;;;;;16.70;9.27;;;;;;;0.16;100.00;97790.06;4959134;28;19948;-60
2022/01/31 03:14:48;;;;;;;19.92;9.93;;;;;;;0.35;100.00;97804.56;4981987;28;20419;-62
2022/01/31 03:17:57;;;;;;;18.52;10.25;;;;;;;0.35;100.00;97803.72;4965993;28;20053;-61
2022/01/31 03:20:43;;;;;;;17.75;10.02;;;;;;;0.30;100.00;97802.91;4963140;28;20057;-60
2022/01/31 03:23:30;;;;;;;19.23;10.80;;;;;;;0.08;100.00;97777.97;4965031;28;20069;-52
2022/01/31 03:26:14;;;;;;;22.50;10.52;;;;;;;0.07;100.00;97804.91;4967440;28;20111;-52
2022/01/31 03:28:59;;;;;;;19.30;10.82;;;;;;;-0.09;100.00;97807.66;4953503;28;20061;-53
2022/01/31 03:31:43;;;;;;;27.77;11.18;;;;;;;-0.09;100.00;97786.84;4942893;29;20050;-54
2022/01/31 03:34:28;;;;;;;;;;;;;;;0.16;100.00;97810.03;4947443;28;20569;-55
2022/01/31 03:37:12;;;;;;;18.13;10.32;;;;;;;0.17;100.00;97803.03;4964885;28;19960;-58
2022/01/31 03:39:57;;;;;;;19.48;10.63;;;;;;;0.31;100.00;97812.47;4995701;28;20052;-53
2022/01/31 03:42:42;;;;;;;21.08;11.43;;;;;;;0.16;100.00;97803.06;4974689;28;20060;-56
2022/01/31 03:45:32;;;;;;;18.98;10.77;;;;;;;0.20;100.00;97802.16;4986073;28;20050;-57
2022/01/31 03:48:33;;;;;;;20.67;10.32;;;;;;;0.36;100.00;97819.34;4983573;28;20053;-56
2022/01/31 03:51:20;;;;;;;23.15;10.88;;;;;;;0.07;100.00;97810.97;4956863;28;20553;-54
2022/01/31 03:54:06;;;;;;;20.17;10.35;;;;;;;0.34;100.00;97817.63;4973874;28;20052;-53
2022/01/31 03:56:51;;;;;;;20.05;10.55;;;;;;;0.39;100.00;97813.25;5025770;28;20123;-52
2022/01/31 03:59:54;;;;;;;18.98;10.82;;;;;;;0.27;100.00;97808.16;5023546;28;20051;-56
2022/01/31 04:02:41;;;;;;;17.70;9.77;;;;;;;0.23;100.00;97812.53;5018139;28;20106;-55
2022/01/31 04:05:44;;;;;;;18.97;10.57;;;;;;;0.44;100.00;97814.91;5045027;28;20527;-51
2022/01/31 04:08:47;;;;;;;19.40;10.10;;;;;;;0.38;100.00;97806.28;5030870;28;20052;-59
2022/01/31 04:11:50;;;;;;;22.70;10.82;;;;;;;0.46;100.00;97810.53;5044716;28;20515;-57
2022/01/31 04:14:53;;;;;;;20.30;10.52;;;;;;;0.40;100.00;97800.19;5039235;28;20067;-51
2022/01/31 04:17:56;;;;;;;21.92;10.32;;;;;;;0.18;100.00;97801.31;5032503;28;20127;-51
2022/01/31 04:21:00;;;;;;;22.85;10.73;;;;;;;0.32;100.00;97799.41;5014982;28;20156;-58
2022/01/31 04:24:04;;;;;;;25.20;11.43;;;;;;;0.42;100.00;97795.81;5017923;28;20056;-57
2022/01/31 04:27:15;;;;;;;25.88;11.63;;;;;;;0.44;100.00;97786.25;5047225;28;20052;-53
2022/01/31 04:30:21;;;;;;;24.52;12.48;;;;;;;0.50;100.00;97785.28;5017524;28;20156;-53
2022/01/31 04:33:27;;;;;;;23.77;12.07;;;;;;;-0.04;100.00;97779.81;5020472;28;20072;-57
2022/01/31 04:36:30;;;;;;;25.95;12.38;;;;;;;0.13;100.00;97785.72;5027152;28;20470;-54
2022/01/31 04:39:34;;;;;;;22.95;11.13;;;;;;;0.24;100.00;97774.31;5023706;28;20092;-51
2022/01/31 04:42:37;;;;;;;21.80;11.38;;;;;;;0.33;100.00;97785.50;5018478;28;20151;-49
2022/01/31 04:45:47;;;;;;;21.42;11.65;;;;;;;0.29;100.00;97791.63;5035661;28;20479;-59
2022/01/31 04:48:50;;;;;;;20.48;10.73;;;;;;;0.22;100.00;97791.69;5031088;28;20055;-57
2022/01/31 04:51:54;;;;;;;23.02;11.10;;;;;;;0.28;100.00;97783.81;5033122;28;20044;-53
2022/01/31 04:54:57;;;;;;;20.60;10.90;;;;;;;0.27;100.00;97787.31;5040488;28;20063;-52
2022/01/31 04:58:01;;;;;;;21.85;11.15;;;;;;;0.11;100.00;97780.56;5038343;28;20056;-58
2022/01/31 05:01:04;;;;;;;18.42;11.40;;;;;;;0.13;100.00;97781.38;5011921;28;20469;-47
2022/01/31 05:04:08;;;;;;;22.50;11.73;;;;;;;0.25;100.00;97778.66;5030876;28;20935;-58
2022/01/31 05:07:11;;;;;;;20.48;11.00;;;;;;;0.36;100.00;97784.59;5025758;28;20731;-49
2022/01/31 05:10:14;;;;;;;21.48;11.80;;;;;;;0.24;100.00;97790.84;5039588;28;20056;-61
2022/01/31 05:13:18;;;;;;;22.35;11.73;;;;;;;0.35;100.00;97791.53;5018398;28;20052;-51
2022/01/31 05:16:22;;;;;;;22.73;12.35;;;;;;;0.44;100.00;97794.06;5044114;28;20060;-54
2022/01/31 05:19:25;;;;;;;22.58;11.77;;;;;;;0.33;100.00;97800.25;5033180;28;20126;-52
2022/01/31 05:22:28;;;;;;;24.27;11.82;;;;;;;0.33;100.00;97803.75;5030522;28;20052;-59
2022/01/31 05:25:32;;;;;;;19.48;12.07;;;;;;;-0.12;100.00;97780.78;5042477;28;20524;-59
2022/01/31 05:28:36;;;;;;;22.08;11.45;;;;;;;0.13;100.00;97792.69;5036354;28;20040;-49
2022/01/31 05:31:39;;;;;;;21.85;11.20;;;;;;;0.16;100.00;97797.00;5036746;28;20087;-60
2022/01/31 05:34:42;;;;;;;22.45;12.27;;;;;;;0.25;100.00;97802.09;5045312;28;20144;-57
2022/01/31 05:37:47;;;;;;;19.13;11.20;;;;;;;0.22;100.00;97794.31;5030133;28;20056;-52
2022/01/31 05:40:50;;;;;;;22.58;10.90;;;;;;;0.46;100.00;97807.06;5043964;28;20536;-62
2022/01/31 05:43:54;;;;;;;22.90;12.73;;;;;;;0.47;100.00;97812.25;5038483;28;20128;-58
2022/01/31 05:46:57;;;;;;;20.60;12.10;;;;;;;0.35;100.00;97804.56;5013009;28;20052;-58
2022/01/31 05:50:02;;;;;;;22.30;12.88;;;;;;;0.32;100.00;97811.56;5043899;28;20105;-60
2022/01/31 05:53:06;;;;;;;23.10;12.48;;;;;;;0.47;100.00;97806.19;5027702;28;20048;-54
2022/01/31 05:56:10;;;;;;;27.73;13.13;;;;;;;0.36;100.00;97810.66;5037057;28;20044;-61
2022/01/31 05:59:14;;;;;;;23.80;11.52;;;;;;;0.58;100.00;97805.16;5042843;28;20416;-52
2022/01/31 06:02:18;;;;;;;23.95;12.52;;;;;;;0.72;100.00;97813.69;5046277;28;20060;-54
2022/01/31 06:05:03;;;;;;;21.98;11.68;;;;;;;0.82;100.00;97820.50;5047247;28;20327;-58
2022/01/31 06:07:50;;;;;;;19.73;11.55;;;;;;;0.75;100.00;97812.78;5047043;28;20094;-60
2022/01/31 06:10:41;;;;;;;23.52;12.90;;;;;;;0.65;100.00;97806.81;5037765;28;20047;-52
2022/01/31 06:13:30;;;;;;;26.00;13.50;;;;;;;0.58;100.00;97810.38;5047843;28;20094;-52
2022/01/31 06:16:15;;;;;;;25.48;13.45;;;;;;;0.66;100.00;97805.09;5014863;28;20570;-54
2022/01/31 06:19:00;;;;;;;23.13;12.63;;;;;;;0.75;100.00;97803.19;5043027;28;20063;-51
2022/01/31 06:21:45;;;;;;;25.45;12.50;;;;;;;0.86;100.00;97803.94;5049107;28;20417;-55
2022/01/31 06:24:30;;;;;;;20.23;12.50;;;;;;;0.88;100.00;97804.78;5004318;28;20479;-56
2022/01/31 06:27:23;;;;;;;22.08;12.93;;;;;;;0.95;100.00;97800.34;5046910;28;20098;-58
2022/01/31 06:30:09;;;;;;;21.15;12.88;;;;;;;1.01;100.00;97808.94;5015314;28;20137;-51
2022/01/31 06:32:54;;;;;;;21.77;13.20;;;;;;;0.77;100.00;97797.97;5009154;28;20056;-53
2022/01/31 06:35:39;;;;;;;21.70;13.02;;;;;;;0.76;100.00;97793.66;5029370;28;20052;-50
2022/01/31 06:38:25;;;;;;;23.08;12.88;;;;;;;0.82;100.00;97807.47;5030022;28;20122;-55
2022/01/31 06:41:13;;;;;;;21.67;12.77;;;;;;;0.97;100.00;97799.44;5028160;28;20048;-58
2022/01/31 06:43:57;;;;;;;20.92;12.63;;;;;;;1.12;100.00;97803.56;5030017;28;20072;-54
2022/01/31 06:46:42;;;;;;;26.43;13.30;;;;;;;0.96;100.00;97789.91;5030797;28;20048;-51
2022/01/31 06:49:26;;;;;;;24.88;12.73;;;;;;;0.92;100.00;97788.22;5036837;28;20068;-54
2022/01/31 06:52:11;;;;;;;23.15;12.82;;;;;;;1.01;100.00;97782.00;5014655;28;20056;-56
2022/01/31 06:55:01;;;;;;;24.08;12.77;;;;;;;0.95;100.00;97764.66;5039317;28;20141;-60
2022/01/31 06:57:51;;;;;;;24.55;13.00;;;;;;;1.02;100.00;97796.78;5048660;28;20139;-49
2022/01/31 07:00:36;;;;;;;25.40;13.48;;;;;;;0.73;100.00;97762.38;5034274;28;20464;-55
2022/01/31 07:03:21;;;;;;;30.38;13.52;;;;;;;0.63;100.00;97750.38;5031168;28;20091;-60
2022/01/31 07:06:07;;;;;;;22.25;13.05;;;;;;;0.93;100.00;97782.09;5050246;28;20128;-58
2022/01/31 07:08:52;;;;;;;27.23;13.85;;;;;;;1.08;100.00;97781.91;5003267;28;20551;-57
2022/01/31 07:11:40;;;;;;;;;;;;;;;1.14;100.00;97780.94;5043378;28;20144;-52
2022/01/31 07:14:31;;;;;;;23.48;12.27;;;;;;;1.35;100.00;97778.88;5026428;28;20004;-49
2022/01/31 07:17:17;;;;;;;25.15;13.10;;;;;;;1.07;100.00;97756.66;5028434;28;20103;-55
2022/01/31 07:20:10;;;;;;;25.42;13.73;;;;;;;1.50;100.00;97783.00;5010116;28;20048;-51
2022/01/31 07:23:02;;;;;;;30.42;13.23;;;;;;;1.32;100.00;97791.09;5017299;28;20087;-53
2022/01/31 07:25:46;;;;;;;25.75;12.70;;;;;;;1.42;100.00;97785.69;5046018;28;20083;-58
2022/01/31 07:28:31;;;;;;;28.88;13.60;;;;;;;1.58;100.00;97796.78;5006985;28;20060;-57
2022/01/31 07:31:16;;;;;;;;;;;;;;;1.66;100.00;97800.13;5032121;28;20128;-53
2022/01/31 07:34:01;;;;;;;28.27;12.82;;;;;;;1.61;100.00;97794.09;5057837;28;19963;-58
2022/01/31 07:36:47;;;;;;;32.03;14.30;;;;;;;1.76;100.00;97794.72;5020197;28;20146;-56
2022/01/31 07:39:32;;;;;;;34.50;14.10;;;;;;;1.82;100.00;97804.19;5040992;28;20060;-58
2022/01/31 07:42:18;;;;;;;36.45;14.05;;;;;;;1.73;100.00;97805.22;5050107;28;20072;-57
2022/01/31 07:45:12;;;;;;;29.77;14.18;;;;;;;1.77;100.00;97812.09;5004531;28;20103;-68
2022/01/31 07:47:57;;;;;;;39.45;14.93;;;;;;;1.90;100.00;97804.94;5030701;28;20059;-59
2022/01/31 07:50:41;;;;;;;;;;;;;;;1.64;100.00;97799.28;5038451;28;20064;-59
2022/01/31 07:53:26;;;;;;;37.05;15.93;;;;;;;1.35;100.00;97811.94;5051481;28;19923;-56
2022/01/31 07:56:14;;;;;;;39.45;15.73;;;;;;;1.16;100.00;97811.34;5050389;28;20084;-62
2022/01/31 07:58:59;;;;;;;37.97;15.35;;;;;;;1.46;100.00;97812.63;5039883;28;20468;-61
2022/01/31 09:13:49;;;;;;;39.65;17.63;;;;;;;1.48;100.00;97767.34;1027808;26;20360;-56
2022/01/31 09:16:40;;;;;;;38.03;17.10;;;;;;;1.82;100.00;97778.09;4954684;29;20059;-54
2022/01/31 09:19:26;;;;;;;40.67;17.75;;;;;;;1.98;100.00;97782.16;4941494;29;20126;-56
2022/01/31 09:22:10;;;;;;;43.22;18.38;;;;;;;1.86;100.00;97732.72;4955428;29;20106;-57
2022/01/31 09:24:55;;;;;;;31.85;16.70;;;;;;;2.09;100.00;97767.97;4955444;29;20046;-58
2022/01/31 09:27:39;;;;;;;32.28;15.43;;;;;;;2.11;100.00;97776.66;4954431;29;20054;-58
2022/01/31 09:30:26;;;;;;;33.67;16.35;;;;;;;2.12;100.00;97770.53;4955789;29;20054;-57
2022/01/31 09:33:12;;;;;;;32.72;16.45;;;;;;;2.29;100.00;97778.06;4927399;29;20562;-56
2022/01/31 09:35:57;;;;;;;36.10;17.00;;;;;;;2.23;100.00;97752.91;4954239;29;20410;-57
2022/01/31 09:38:43;;;;;;;31.33;16.13;;;;;;;2.43;100.00;97773.41;4954913;29;20430;-59
2022/01/31 09:41:36;;;;;;;31.00;15.55;;;;;;;2.48;100.00;97775.06;4954491;29;20053;-53
2022/01/31 09:50:35;;;;;;;32.70;16.75;;;;;;;2.60;100.00;97779.16;4954393;29;20110;-58
2022/01/31 09:53:24;;;;;;;37.58;15.80;;;;;;;2.67;100.00;97779.03;4955832;29;20151;-55
2022/01/31 09:56:11;;;;;;;30.17;15.15;;;;;;;2.64;100.00;97778.22;4954338;29;20149;-56
2022/01/31 09:58:57;;;;;;;33.45;16.45;;;;;;;2.43;100.00;97760.34;4940861;29;20083;-55
2022/01/31 10:01:54;;;;;;;30.02;16.58;;;;;;;2.56;100.00;97769.66;4940974;29;20062;-64
2022/01/31 10:04:58;;;;;;;30.58;15.23;;;;;;;2.26;100.00;97781.56;4955491;29;20529;-58
2022/01/31 10:07:49;;;;;;;32.50;17.02;;;;;;;2.38;100.00;97783.94;4954533;29;20050;-54
2022/01/31 10:10:40;;;;;;;38.22;17.30;;;;;;;2.49;100.00;97781.16;4955516;29;20130;-55
2022/01/31 10:16:44;;;;;;;32.38;16.27;;;;;;;2.55;100.00;97766.19;4940456;29;20054;-51
2022/01/31 10:19:43;;;;;;;31.30;15.13;;;;;;;2.61;100.00;97763.44;4954275;29;20533;-56
2022/01/31 10:22:32;;;;;;;33.45;17.33;;;;;;;2.55;100.00;97762.72;4955101;29;20077;-56
2022/01/31 10:25:20;;;;;;;33.40;16.52;;;;;;;2.66;100.00;97759.00;4954893;29;20155;-49
2022/01/31 10:28:39;;;;;;;34.22;16.83;;;;;;;2.76;100.00;97757.00;4955307;29;20102;-57
2022/01/31 10:31:28;;;;;;;32.08;15.45;;;;;;;2.79;100.00;97754.34;4940407;29;20570;-56
2022/01/31 10:34:20;;;;;;;39.78;16.50;;;;;;;2.66;100.00;97760.75;4969797;28;20131;-64
2022/01/31 10:37:10;;;;;;;38.40;16.83;;;;;;;2.40;100.00;97755.16;4974332;28;20153;-63
2022/01/31 10:43:27;;;;;;;36.47;16.52;;;;;;;2.55;100.00;97762.72;4974928;28;20057;-54
2022/01/31 10:52:30;;;;;;;36.60;16.25;;;;;;;2.64;100.00;97767.75;4943792;29;20091;-58
2022/01/31 10:55:16;;;;;;;36.63;17.20;;;;;;;2.58;100.00;97754.81;4943336;29;20089;-56
2022/01/31 10:58:12;;;;;;;35.47;16.88;;;;;;;2.74;100.00;97759.69;4940926;29;20057;-53
2022/01/31 11:06:10;;;;;;;33.72;16.63;;;;;;;2.70;100.00;97754.53;4936738;29;20051;-55
2022/01/31 11:09:02;;;;;;;39.17;17.45;;;;;;;2.41;100.00;97742.06;4936077;29;20115;-56
2022/01/31 11:11:50;;;;;;;36.97;16.95;;;;;;;2.62;100.00;97746.88;4936430;29;20054;-56
2022/01/31 11:14:37;;;;;;;42.75;17.55;;;;;;;2.75;100.00;97752.69;4933231;29;20062;-55
2022/01/31 11:17:24;;;;;;;38.30;17.25;;;;;;;2.59;100.00;97738.22;4920277;29;20126;-53
2022/01/31 11:20:10;;;;;;;38.70;18.02;;;;;;;2.61;100.00;97741.69;4934697;29;20408;-52
2022/01/31 11:22:58;;;;;;;42.03;17.65;;;;;;;2.70;100.00;97736.25;4922355;29;20058;-53
2022/01/31 11:25:50;;;;;;;40.28;18.15;;;;;;;2.84;100.00;97740.28;4936219;29;20142;-61
2022/01/31 11:28:38;;;;;;;39.92;17.23;;;;;;;2.76;100.00;97749.16;4963546;28;20086;-52
2022/01/31 11:31:26;;;;;;;32.55;16.77;;;;;;;2.71;100.00;97744.06;4942288;29;20117;-61
2022/01/31 11:34:12;;;;;;;42.97;19.95;;;;;;;2.62;100.00;97728.56;4956057;29;20054;-54
2022/01/31 11:36:57;;;;;;;37.80;18.58;;;;;;;2.69;100.00;97745.81;4928371;29;20127;-52
2022/01/31 11:39:48;;;;;;;42.72;18.77;;;;;;;2.82;100.00;97741.19;4937096;29;20055;-53
2022/01/31 11:42:34;;;;;;;44.97;19.77;;;;;;;2.91;100.00;97743.59;4926000;29;20081;-55
2022/01/31 11:45:26;;;;;;;45.03;19.63;;;;;;;2.89;100.00;97746.25;4956720;29;20058;-53
2022/01/31 11:48:23;;;;;;;38.60;17.75;;;;;;;2.95;100.00;97743.53;4956665;29;20089;-55
2022/01/31 11:51:08;;;;;;;35.25;16.33;;;;;;;3.06;100.00;97740.66;4936761;29;20058;-52
2022/01/31 11:54:29;;;;;;;40.15;17.00;;;;;;;3.00;100.00;97741.66;4927331;29;20050;-55
2022/01/31 11:57:58;;;;;;;30.65;15.23;;;;;;;3.18;100.00;97745.59;4927534;29;20098;-53
2022/01/31 12:00:51;;;;;;;36.47;16.20;;;;;;;3.07;100.00;97748.47;4877987;29;20055;-56
2022/01/31 12:04:10;;;;;;;34.40;15.02;;;;;;;3.10;100.00;97751.03;4915584;29;20115;-51
2022/01/31 12:06:58;;;;;;;26.15;13.02;;;;;;;2.93;100.00;97744.44;4889278;29;20059;-56
2022/01/31 12:09:55;;;;;;;;;;;;;;;2.97;100.00;97746.09;4882959;29;20062;-53
2022/01/31 12:22:01;;;;;;;33.35;15.20;;;;;;;2.80;100.00;97745.59;4912969;29;20167;-51
2022/01/31 12:24:55;;;;;;;34.30;16.35;;;;;;;2.79;100.00;97726.44;4900414;29;20099;-56
2022/01/31 12:27:40;;;;;;;31.83;16.13;;;;;;;2.96;100.00;97726.03;4914662;29;20099;-53
2022/01/31 12:30:36;;;;;;;36.22;16.63;;;;;;;2.97;100.00;97733.00;4916075;29;20043;-58
2022/01/31 12:33:47;;;;;;;34.72;17.13;;;;;;;3.00;100.00;97725.06;4914773;29;20115;-52
2022/01/31 12:36:35;;;;;;;31.85;15.68;;;;;;;2.97;100.00;97730.41;4907294;29;20495;-53
2022/01/31 12:39:29;;;;;;;35.92;15.90;;;;;;;3.04;100.00;97732.84;4934123;29;20050;-52
2022/01/31 12:45:31;;;;;;;37.17;16.25;;;;;;;3.10;100.00;97726.59;4936609;29;20058;-53
2022/01/31 12:48:20;;;;;;;35.53;17.15;;;;;;;2.93;100.00;97705.19;4907882;29;20174;-52
2022/01/31 12:51:07;;;;;;;31.92;15.73;;;;;;;2.62;100.00;97714.63;4935068;29;20194;-55
2022/01/31 12:53:53;;;;;;;30.10;15.18;;;;;;;2.82;100.00;97708.06;4949499;29;20050;-59
2022/01/31 12:56:39;;;;;;;30.30;14.05;;;;;;;2.94;100.00;97710.41;4936475;29;20138;-55
2022/01/31 12:59:23;;;;;;;29.08;13.82;;;;;;;2.67;100.00;97679.63;4936495;29;20125;-58
2022/01/31 13:02:10;;;;;;;28.70;14.25;;;;;;;2.80;100.00;97716.81;4936178;29;20054;-53
2022/01/31 13:04:54;;;;;;;30.27;14.98;;;;;;;2.45;100.00;97678.34;4960387;28;20375;-62
2022/01/31 13:07:39;;;;;;;29.27;14.80;;;;;;;2.68;100.00;97712.72;4969160;28;20112;-54
2022/01/31 13:10:24;;;;;;;31.55;15.27;;;;;;;2.68;100.00;97704.88;4951992;29;20089;-51
2022/01/31 13:13:15;;;;;;;30.80;16.10;;;;;;;2.84;100.00;97713.22;4950776;28;20038;-58
2022/01/31 13:16:12;;;;;;;31.60;15.30;;;;;;;2.86;100.00;97707.09;4947479;28;20130;-55
2022/01/31 13:18:56;;;;;;;30.17;15.18;;;;;;;2.88;100.00;97709.66;4947723;29;20053;-64
2022/01/31 13:21:42;;;;;;;31.90;14.80;;;;;;;2.69;100.00;97705.75;4949616;29;20510;-56
2022/01/31 13:24:41;;;;;;;27.15;14.38;;;;;;;2.78;100.00;97709.03;4932872;29;20081;-59
2022/01/31 13:27:46;;;;;;;34.53;15.95;;;;;;;2.88;100.00;97704.41;4956922;28;20124;-57
2022/01/31 13:30:31;;;;;;;26.23;13.88;;;;;;;2.72;100.00;97697.81;4935212;29;20046;-55
2022/01/31 13:33:15;;;;;;;24.63;13.30;;;;;;;2.78;100.00;97706.41;4935688;29;20086;-51
2022/01/31 13:36:02;;;;;;;25.38;13.88;;;;;;;2.88;100.00;97696.56;4935544;28;20051;-53
2022/01/31 13:38:47;;;;;;;25.30;14.05;;;;;;;2.60;100.00;97654.47;4939929;29;20548;-62
2022/01/31 13:41:31;;;;;;;25.35;13.82;;;;;;;3.00;100.00;97706.75;4953378;29;20085;-55
2022/01/31 13:44:18;;;;;;;28.83;14.50;;;;;;;2.92;100.00;97701.72;4939640;29;20135;-54
2022/01/31 13:47:03;;;;;;;28.30;13.23;;;;;;;2.96;100.00;97700.75;4953275;28;20067;-53
2022/01/31 13:49:51;;;;;;;26.38;13.77;;;;;;;2.96;100.00;97692.88;4951923;29;20411;-58
2022/01/31 13:52:53;;;;;;;27.90;12.98;;;;;;;3.05;100.00;97703.13;4953462;29;20054;-59
2022/01/31 13:55:52;;;;;;;25.75;13.40;;;;;;;3.07;100.00;97706.59;4953582;29;20101;-55
2022/01/31 13:58:41;;;;;;;24.75;13.43;;;;;;;3.12;100.00;97707.34;4951304;29;20106;-57
2022/01/31 14:01:26;;;;;;;26.05;13.52;;;;;;;3.01;100.00;97709.34;4953787;29;20131;-64
2022/01/31 14:04:14;;;;;;;23.85;13.32;;;;;;;2.91;100.00;97704.34;4950092;28;20144;-58
2022/01/31 14:07:00;;;;;;;23.15;13.02;;;;;;;2.98;100.00;97704.19;4954557;29;20079;-58
2022/01/31 14:09:46;;;;;;;24.13;12.57;;;;;;;3.09;100.00;97706.56;4939114;29;20412;-55
2022/01/31 14:12:31;;;;;;;23.58;13.27;;;;;;;3.04;100.00;97705.78;4953160;29;20257;-57
2022/01/31 14:15:17;;;;;;;;;;;;;;;3.12;100.00;97703.84;4953049;28;20594;-51
2022/01/31 14:18:02;;;;;;;22.15;12.45;;;;;;;3.00;100.00;97694.53;4952558;29;19929;-56
2022/01/31 14:20:54;;;;;;;22.25;11.80;;;;;;;3.01;100.00;97691.00;4953249;29;20053;-59
2022/01/31 14:23:41;;;;;;;21.70;11.90;;;;;;;3.01;100.00;97703.25;4938636;29;20146;-61
2022/01/31 14:27:07;;;;;;;21.85;12.30;;;;;;;3.10;100.00;97698.69;4956469;29;20070;-56
2022/01/31 14:29:58;;;;;;;22.77;11.60;;;;;;;3.04;100.00;97695.31;4934779;28;20053;-56
2022/01/31 14:32:42;;;;;;;19.52;11.85;;;;;;;2.95;100.00;97691.19;4956109;28;20078;-61
2022/01/31 14:35:28;;;;;;;22.70;12.82;;;;;;;2.92;100.00;97690.38;4955410;29;20050;-54
2022/01/31 14:38:21;;;;;;;22.30;12.13;;;;;;;3.05;100.00;97702.28;4954713;29;20106;-56
2022/01/31 14:41:15;;;;;;;20.95;11.85;;;;;;;3.01;100.00;97704.09;4955936;29;20074;-54
2022/01/31 14:47:24;;;;;;;22.95;12.18;;;;;;;2.86;100.00;97669.59;4954326;29;20118;-57
2022/01/31 14:50:11;;;;;;;20.02;11.65;;;;;;;3.06;100.00;97696.16;4954667;29;20081;-53
2022/01/31 14:53:07;;;;;;;21.20;12.23;;;;;;;3.10;100.00;97696.06;4955653;29;20074;-56
2022/01/31 14:55:51;;;;;;;20.38;11.60;;;;;;;3.10;100.00;97700.41;4954399;29;20110;-51
2022/01/31 14:58:36;;;;;;;23.75;12.43;;;;;;;3.09;100.00;97691.69;4942036;29;20566;-55
2022/01/31 15:01:20;;;;;;;21.65;12.23;;;;;;;3.05;100.00;97684.81;4979235;28;20110;-54